Time;durP1;ratioP1;P1;durP2;ratioP2;P2;SDS_P1;SDS_P2;PMS_P1;PMS_P2;Temp;Humidity;BMP_temperature;BMP_pressure;BME280_temperature;BME280_humidity;BME280_pressure;Samples;Min_cycle;Max_cycle;Signal;HPM_P1;HPM_P2
2022/03/15 00:01:03;;;;;;;5.13;1.90;;;6.00;99.90;;;;;;5088793;28;20432;-80
2022/03/15 00:03:30;;;;;;;5.27;2.10;;;5.90;99.90;;;;;;5089789;28;20490;-78
2022/03/15 00:05:55;;;;;;;3.00;1.30;;;6.00;99.90;;;;;;5089673;28;20967;-78
2022/03/15 00:08:21;;;;;;;8.53;2.47;;;6.00;99.90;;;;;;5089894;28;20561;-78
2022/03/15 00:10:48;;;;;;;4.37;2.07;;;6.30;99.90;;;;;;5090489;28;20702;-79
2022/03/15 00:13:14;;;;;;;5.30;1.97;;;6.20;99.90;;;;;;5092453;28;20202;-78
2022/03/15 00:15:41;;;;;;;7.63;2.30;;;6.30;99.90;;;;;;5092986;28;20412;-79
2022/03/15 00:18:07;;;;;;;5.77;2.03;;;6.30;99.90;;;;;;5076257;28;20505;-80
2022/03/15 00:20:33;;;;;;;5.23;2.43;;;6.30;99.90;;;;;;5093850;28;20543;-79
2022/03/15 00:23:00;;;;;;;3.77;1.60;;;6.30;99.90;;;;;;5075125;28;20441;-78
2022/03/15 00:25:27;;;;;;;6.87;2.17;;;6.10;99.90;;;;;;5090583;28;20497;-76
2022/03/15 00:27:54;;;;;;;4.53;2.40;;;6.10;99.90;;;;;;5091854;28;20897;-77
2022/03/15 00:30:21;;;;;;;9.37;2.43;;;6.10;99.90;;;;;;5094451;28;20434;-78
2022/03/15 00:32:47;;;;;;;9.47;2.20;;;6.00;99.90;;;;;;5096221;28;20453;-78
2022/03/15 00:35:18;;;;;;;4.53;1.43;;;5.80;99.90;;;;;;5096201;28;20456;-78
2022/03/15 00:37:44;;;;;;;3.80;1.87;;;5.80;99.90;;;;;;5098233;28;20487;-79
2022/03/15 00:40:11;;;;;;;5.20;2.20;;;5.80;99.90;;;;;;5095609;28;20427;-77
2022/03/15 00:42:37;;;;;;;3.57;1.90;;;5.90;99.90;;;;;;5090973;28;20441;-77
2022/03/15 00:45:03;;;;;;;5.70;2.10;;;6.00;99.90;;;;;;5090720;28;20427;-77
2022/03/15 00:47:30;;;;;;;3.80;1.53;;;5.90;99.90;;;;;;5092372;28;20682;-77
2022/03/15 00:49:56;;;;;;;2.37;1.37;;;5.90;99.90;;;;;;5092605;28;21033;-77
2022/03/15 00:52:21;;;;;;;2.97;1.70;;;5.80;99.90;;;;;;5097840;28;20475;-78
2022/03/15 00:54:47;;;;;;;4.33;1.87;;;5.70;99.90;;;;;;5097065;28;20478;-78
2022/03/15 00:57:13;;;;;;;4.17;1.70;;;5.60;99.90;;;;;;5100066;28;20198;-78
2022/03/15 00:59:39;;;;;;;2.63;1.50;;;5.80;99.90;;;;;;5097681;28;20416;-78
2022/03/15 01:02:05;;;;;;;7.40;2.13;;;5.70;99.90;;;;;;5090667;28;21001;-79
2022/03/15 01:04:31;;;;;;;6.77;1.90;;;5.70;99.90;;;;;;5088545;28;20190;-77
2022/03/15 01:06:57;;;;;;;6.13;2.23;;;5.70;99.90;;;;;;5088997;28;20474;-76
2022/03/15 01:09:23;;;;;;;3.30;1.70;;;5.70;99.90;;;;;;5088325;28;20428;-77
2022/03/15 01:11:48;;;;;;;4.30;1.70;;;5.70;99.90;;;;;;5089054;28;20857;-77
2022/03/15 01:14:15;;;;;;;2.20;1.87;;;5.60;99.90;;;;;;5087708;28;20243;-77
2022/03/15 01:16:41;;;;;;;6.63;1.90;;;5.60;99.90;;;;;;5089029;28;20268;-77
2022/03/15 01:19:08;;;;;;;6.17;2.10;;;5.60;99.90;;;;;;5088854;28;20424;-76
2022/03/15 01:21:38;;;;;;;6.10;2.13;;;5.60;99.90;;;;;;5088026;28;20455;-77
2022/03/15 01:24:08;;;;;;;10.83;2.57;;;5.50;99.90;;;;;;5087910;28;20539;-76
2022/03/15 01:26:35;;;;;;;7.77;2.13;;;5.50;99.90;;;;;;5089404;28;20939;-77
2022/03/15 01:29:01;;;;;;;11.03;2.27;;;5.50;99.90;;;;;;5088803;28;20503;-78
2022/03/15 01:31:27;;;;;;;3.37;1.93;;;5.40;99.90;;;;;;5089113;28;20448;-76
2022/03/15 01:33:53;;;;;;;6.10;1.90;;;5.50;99.90;;;;;;5088704;28;20441;-78
2022/03/15 01:36:19;;;;;;;9.10;1.83;;;5.50;99.90;;;;;;5089089;28;20413;-77
2022/03/15 01:38:45;;;;;;;13.30;3.00;;;5.60;99.90;;;;;;5088910;28;20537;-78
2022/03/15 01:41:11;;;;;;;5.13;2.70;;;5.60;99.90;;;;;;5087762;28;20428;-78
2022/03/15 01:43:39;;;;;;;6.50;1.57;;;5.60;99.90;;;;;;5091765;28;20494;-77
2022/03/15 01:46:06;;;;;;;7.17;2.30;;;5.70;99.90;;;;;;5091453;28;20188;-77
2022/03/15 01:48:32;;;;;;;5.10;2.03;;;5.60;99.90;;;;;;5092523;28;20499;-78
2022/03/15 01:50:58;;;;;;;16.17;2.87;;;5.60;99.90;;;;;;5092431;28;20547;-78
2022/03/15 01:53:24;;;;;;;9.30;2.10;;;5.60;99.90;;;;;;5092696;28;20425;-77
2022/03/15 01:55:50;;;;;;;8.90;3.37;;;5.70;99.90;;;;;;5074704;28;20174;-77
2022/03/15 01:58:16;;;;;;;2.67;2.30;;;5.70;99.90;;;;;;5092028;28;21022;-78
2022/03/15 02:00:44;;;;;;;5.77;2.43;;;5.70;99.90;;;;;;5093213;28;20456;-78
2022/03/15 02:03:10;;;;;;;8.80;2.43;;;5.70;99.90;;;;;;5092467;28;20474;-77
2022/03/15 02:05:36;;;;;;;7.17;2.63;;;5.60;99.90;;;;;;5091579;28;20881;-77
2022/03/15 02:08:13;;;;;;;4.80;2.20;;;5.60;99.90;;;;;;5090513;28;20430;-77
2022/03/15 02:10:39;;;;;;;4.03;2.23;;;5.60;99.90;;;;;;5092083;28;20483;-77
2022/03/15 02:13:05;;;;;;;8.10;2.07;;;5.50;99.90;;;;;;5091823;28;20828;-78
2022/03/15 02:15:30;;;;;;;6.50;2.20;;;5.50;99.90;;;;;;5091685;28;20424;-77
2022/03/15 02:17:56;;;;;;;3.40;1.97;;;5.50;99.90;;;;;;5090087;28;20179;-77
2022/03/15 02:20:22;;;;;;;6.73;2.10;;;5.40;99.90;;;;;;5090148;28;20179;-77
2022/03/15 02:22:48;;;;;;;5.07;1.90;;;5.40;99.90;;;;;;5091443;28;20452;-77
2022/03/15 02:25:14;;;;;;;4.53;2.27;;;5.50;99.90;;;;;;5090169;28;20539;-77
2022/03/15 02:27:39;;;;;;;6.07;2.70;;;5.50;99.90;;;;;;5090162;28;20186;-79
2022/03/15 02:30:06;;;;;;;3.73;2.00;;;5.50;99.90;;;;;;5092312;28;20179;-84
2022/03/15 02:32:32;;;;;;;5.53;2.67;;;5.50;99.90;;;;;;5090259;28;20225;-82
2022/03/15 02:34:58;;;;;;;6.53;2.47;;;5.50;99.90;;;;;;5090230;28;20421;-83
2022/03/15 02:37:24;;;;;;;5.47;2.33;;;5.60;99.90;;;;;;5090171;28;20519;-83
2022/03/15 02:39:50;;;;;;;10.97;2.77;;;5.90;99.90;;;;;;5056642;28;20194;-84
2022/03/15 02:42:17;;;;;;;11.57;2.63;;;5.60;99.90;;;;;;5072851;28;20489;-85
2022/03/15 02:44:43;;;;;;;6.50;2.50;;;5.70;99.90;;;;;;5091471;28;20420;-84
2022/03/15 02:47:09;;;;;;;8.43;1.93;;;5.60;99.90;;;;;;5073250;28;20439;-85
2022/03/15 02:49:34;;;;;;;3.60;1.63;;;5.60;99.90;;;;;;5072860;28;20201;-86
2022/03/15 02:52:00;;;;;;;4.73;2.13;;;5.50;99.90;;;;;;5089321;28;20456;-83
2022/03/15 02:54:26;;;;;;;9.07;2.10;;;5.30;99.90;;;;;;5090477;28;20246;-82
2022/03/15 02:56:52;;;;;;;3.53;1.80;;;5.40;99.90;;;;;;5089830;28;20533;-83
2022/03/15 02:59:18;;;;;;;2.60;2.00;;;5.60;99.90;;;;;;5073787;28;20193;-86
2022/03/15 03:01:45;;;;;;;4.27;1.83;;;5.20;99.90;;;;;;5090474;28;20200;-87
2022/03/15 03:04:10;;;;;;;3.20;1.70;;;5.40;99.90;;;;;;5075902;28;20443;-85
2022/03/15 03:06:42;;;;;;;1.60;1.50;;;5.40;99.90;;;;;;5093785;28;20515;-85
2022/03/15 03:09:09;;;;;;;7.67;2.00;;;5.30;99.90;;;;;;5077027;28;20653;-84
2022/03/15 03:11:35;;;;;;;6.37;2.23;;;5.30;99.90;;;;;;5076917;28;20492;-85
2022/03/15 03:14:01;;;;;;;3.63;2.10;;;5.20;99.90;;;;;;5073587;28;20983;-86
2022/03/15 03:16:28;;;;;;;9.13;2.30;;;5.20;99.90;;;;;;5089705;28;20174;-86
2022/03/15 03:18:57;;;;;;;6.77;2.80;;;5.30;99.90;;;;;;5091178;28;20424;-87
2022/03/15 03:21:27;;;;;;;5.20;2.30;;;5.20;99.90;;;;;;5094413;28;20459;-86
2022/03/15 03:23:55;;;;;;;3.70;2.37;;;5.10;99.90;;;;;;5077790;28;20448;-86
2022/03/15 03:26:22;;;;;;;3.87;1.80;;;5.10;99.90;;;;;;5074176;28;20452;-85
2022/03/15 03:28:47;;;;;;;4.60;2.47;;;5.20;99.90;;;;;;5089553;28;20427;-82
2022/03/15 03:31:14;;;;;;;3.17;2.03;;;5.20;99.90;;;;;;5089639;28;20459;-85
2022/03/15 03:33:40;;;;;;;6.20;2.50;;;5.10;99.90;;;;;;5073796;28;20601;-84
2022/03/15 03:36:07;;;;;;;5.43;2.10;;;5.20;99.90;;;;;;5090945;28;20464;-80
2022/03/15 03:38:33;;;;;;;6.60;2.27;;;5.40;99.90;;;;;;5090887;28;20423;-85
2022/03/15 03:40:59;;;;;;;4.03;2.27;;;5.30;99.90;;;;;;5073029;28;20432;-81
2022/03/15 03:43:25;;;;;;;4.30;1.80;;;5.00;99.90;;;;;;5090234;28;20448;-78
2022/03/15 03:45:51;;;;;;;3.23;2.20;;;5.10;99.90;;;;;;5088876;28;20425;-82
2022/03/15 03:48:16;;;;;;;5.97;1.97;;;5.00;99.90;;;;;;5072122;28;20190;-79
2022/03/15 03:50:43;;;;;;;7.23;2.83;;;5.10;99.90;;;;;;5088879;28;21029;-82
2022/03/15 03:53:09;;;;;;;5.57;2.40;;;5.10;99.90;;;;;;5056410;28;20210;-78
2022/03/15 03:55:36;;;;;;;5.83;2.50;;;5.10;99.90;;;;;;5088972;28;20421;-79
2022/03/15 03:58:03;;;;;;;8.13;2.73;;;5.20;99.90;;;;;;5090248;28;20429;-79
2022/03/15 04:00:29;;;;;;;7.80;3.17;;;5.20;99.90;;;;;;5088325;28;21021;-78
2022/03/15 04:03:00;;;;;;;4.63;2.50;;;5.20;99.90;;;;;;5090810;28;20497;-79
2022/03/15 04:05:33;;;;;;;5.17;2.80;;;5.20;99.90;;;;;;5073605;28;20452;-80
2022/03/15 04:07:59;;;;;;;8.83;3.83;;;5.20;99.90;;;;;;5073974;28;20847;-79
2022/03/15 04:10:28;;;;;;;8.87;3.47;;;5.30;99.90;;;;;;5092381;28;20423;-81
2022/03/15 04:12:55;;;;;;;2.97;2.60;;;5.10;99.90;;;;;;5073872;28;20444;-82
2022/03/15 04:15:22;;;;;;;7.40;3.07;;;5.30;99.90;;;;;;5091356;28;20404;-83
2022/03/15 04:17:48;;;;;;;5.63;2.73;;;5.20;99.90;;;;;;5075098;28;20421;-81
2022/03/15 04:20:13;;;;;;;8.43;3.10;;;5.10;99.90;;;;;;5088947;28;20436;-81
2022/03/15 04:22:39;;;;;;;5.37;3.17;;;5.20;99.90;;;;;;5088274;28;20661;-79
2022/03/15 04:25:06;;;;;;;6.07;2.70;;;5.20;99.90;;;;;;5089947;28;20187;-81
2022/03/15 04:27:32;;;;;;;6.10;2.93;;;5.10;99.90;;;;;;5055092;28;20186;-80
2022/03/15 04:29:58;;;;;;;12.27;3.30;;;5.10;99.90;;;;;;5054846;28;20519;-82
2022/03/15 04:32:24;;;;;;;10.73;3.00;;;5.00;99.90;;;;;;5071968;28;20228;-80
2022/03/15 04:34:50;;;;;;;6.33;3.13;;;5.10;99.90;;;;;;5071603;28;20194;-80
2022/03/15 04:37:16;;;;;;;8.77;2.50;;;5.00;99.90;;;;;;5088397;28;20509;-79
2022/03/15 04:39:42;;;;;;;9.07;3.63;;;5.10;99.90;;;;;;5088570;28;20182;-81
2022/03/15 04:42:07;;;;;;;5.43;2.73;;;5.10;99.90;;;;;;5088304;28;20232;-80
2022/03/15 04:44:33;;;;;;;6.70;2.77;;;5.10;99.90;;;;;;5056050;28;20860;-82
2022/03/15 04:46:59;;;;;;;5.83;3.50;;;5.10;99.90;;;;;;5089811;28;20186;-81
2022/03/15 04:49:24;;;;;;;11.30;3.03;;;5.10;99.90;;;;;;5056922;28;20195;-79
2022/03/15 04:51:50;;;;;;;6.50;3.10;;;5.10;99.90;;;;;;5088485;28;20205;-79
2022/03/15 04:54:16;;;;;;;5.53;2.80;;;5.10;99.90;;;;;;5072061;28;20182;-81
2022/03/15 04:56:42;;;;;;;4.90;3.63;;;5.10;99.90;;;;;;5073438;28;20440;-76
2022/03/15 04:59:08;;;;;;;7.50;3.40;;;5.10;99.90;;;;;;5091210;28;20473;-77
2022/03/15 05:01:34;;;;;;;3.63;2.70;;;5.10;99.90;;;;;;5091088;28;20544;-78
2022/03/15 05:04:00;;;;;;;8.30;3.50;;;5.20;99.90;;;;;;5092483;28;20202;-78
2022/03/15 05:06:26;;;;;;;6.73;3.10;;;5.20;99.90;;;;;;5092709;28;20189;-78
2022/03/15 05:08:51;;;;;;;6.13;3.47;;;5.30;99.90;;;;;;5092935;28;20682;-78
2022/03/15 05:11:18;;;;;;;11.07;3.50;;;5.30;99.90;;;;;;5092915;28;20198;-78
2022/03/15 05:13:46;;;;;;;5.83;3.70;;;5.40;99.90;;;;;;5094498;28;20219;-78
2022/03/15 05:16:18;;;;;;;7.83;3.33;;;5.50;99.90;;;;;;5093589;28;20419;-78
2022/03/15 05:18:50;;;;;;;6.40;3.57;;;5.40;99.90;;;;;;5077255;28;20424;-80
2022/03/15 05:21:16;;;;;;;15.50;3.90;;;5.40;99.90;;;;;;5095510;28;20417;-78
2022/03/15 05:23:46;;;;;;;10.77;5.30;;;5.40;99.90;;;;;;5096469;28;20432;-78
2022/03/15 05:26:13;;;;;;;9.00;6.13;;;5.40;99.90;;;;;;5096464;28;20419;-80
2022/03/15 05:28:39;;;;;;;14.83;5.90;;;5.40;99.90;;;;;;5096429;28;20428;-78
2022/03/15 05:31:05;;;;;;;8.00;4.73;;;5.40;99.90;;;;;;5077177;28;20462;-78
2022/03/15 05:33:31;;;;;;;6.13;4.60;;;5.50;99.90;;;;;;5092837;28;20531;-79
2022/03/15 05:35:57;;;;;;;7.93;4.50;;;5.50;99.90;;;;;;5090572;28;20948;-76
2022/03/15 05:38:23;;;;;;;6.07;3.83;;;5.60;99.90;;;;;;5092005;28;20412;-76
2022/03/15 05:40:48;;;;;;;12.40;4.27;;;5.60;99.90;;;;;;5090706;28;20423;-77
2022/03/15 05:43:14;;;;;;;36.53;17.50;;;5.60;99.90;;;;;;5073634;28;21261;-78
2022/03/15 05:45:40;;;;;;;88.27;42.00;;;5.50;99.90;;;;;;5090283;28;20579;-78
2022/03/15 05:48:07;;;;;;;40.27;20.77;;;5.50;99.90;;;;;;5091674;28;20477;-78
2022/03/15 05:50:33;;;;;;;17.83;6.60;;;5.40;99.90;;;;;;5091639;28;20501;-76
2022/03/15 05:53:03;;;;;;;6.10;3.93;;;5.50;99.90;;;;;;5091393;28;20424;-77
2022/03/15 05:55:30;;;;;;;6.57;4.27;;;5.50;99.90;;;;;;5091356;28;20413;-77
2022/03/15 05:57:56;;;;;;;6.40;3.80;;;5.60;99.90;;;;;;5091000;28;20444;-78
2022/03/15 06:00:21;;;;;;;8.63;3.90;;;5.60;99.90;;;;;;5091305;28;20418;-79
2022/03/15 06:02:47;;;;;;;9.13;4.53;;;5.60;99.90;;;;;;5089958;28;20233;-77
2022/03/15 06:05:13;;;;;;;11.53;5.83;;;5.60;99.90;;;;;;5091366;28;20240;-77
2022/03/15 06:07:50;;;;;;;15.43;8.20;;;5.70;99.90;;;;;;5091243;28;20186;-77
2022/03/15 06:10:18;;;;;;;12.77;7.53;;;5.70;99.90;;;;;;5090103;28;20182;-78
2022/03/15 06:12:44;;;;;;;21.17;9.27;;;5.80;99.90;;;;;;5090978;28;20490;-78
2022/03/15 06:15:11;;;;;;;13.60;8.40;;;5.80;99.90;;;;;;5091480;28;20833;-77
2022/03/15 06:17:43;;;;;;;17.43;7.70;;;5.80;99.90;;;;;;5091450;28;20411;-78
2022/03/15 06:20:12;;;;;;;11.23;6.70;;;5.80;99.90;;;;;;5090303;28;20428;-77
2022/03/15 06:22:38;;;;;;;27.47;11.73;;;5.90;99.90;;;;;;5091317;28;20447;-78
2022/03/15 06:25:04;;;;;;;21.00;10.67;;;6.00;99.90;;;;;;5073084;28;20786;-78
2022/03/15 06:27:30;;;;;;;15.37;9.90;;;5.90;99.90;;;;;;5091359;28;20181;-78
2022/03/15 06:29:55;;;;;;;13.00;6.90;;;6.00;99.90;;;;;;5089930;28;20417;-77
2022/03/15 06:32:21;;;;;;;13.23;6.20;;;6.00;99.90;;;;;;5089684;28;20214;-77
2022/03/15 06:34:47;;;;;;;25.87;7.73;;;6.00;99.90;;;;;;5089704;28;20181;-78
2022/03/15 06:37:13;;;;;;;26.90;7.10;;;6.00;99.90;;;;;;5090834;28;20412;-78
2022/03/15 06:39:38;;;;;;;21.67;5.70;;;6.30;99.90;;;;;;5089593;28;20189;-78
2022/03/15 06:42:07;;;;;;;13.17;5.47;;;6.30;99.90;;;;;;5090523;28;20185;-77
2022/03/15 06:44:34;;;;;;;10.80;5.00;;;6.30;99.90;;;;;;5090853;28;20186;-76
2022/03/15 06:47:00;;;;;;;23.27;6.20;;;6.50;99.90;;;;;;5090724;28;21085;-77
2022/03/15 06:49:25;;;;;;;12.80;5.07;;;6.40;99.90;;;;;;5091033;28;20412;-77
2022/03/15 06:51:51;;;;;;;11.07;5.77;;;6.60;99.90;;;;;;5089084;28;20681;-77
2022/03/15 06:54:17;;;;;;;18.53;7.97;;;6.60;99.90;;;;;;5090908;28;20544;-78
2022/03/15 06:56:43;;;;;;;36.70;14.67;;;6.60;99.90;;;;;;5090776;28;20555;-78
2022/03/15 06:59:09;;;;;;;44.47;15.67;;;6.70;99.90;;;;;;5090580;28;20415;-77
2022/03/15 07:01:34;;;;;;;38.97;12.80;;;6.80;99.90;;;;;;5090537;28;20182;-79
2022/03/15 07:04:00;;;;;;;26.10;11.43;;;6.90;99.90;;;;;;5072282;28;20580;-78
2022/03/15 07:06:26;;;;;;;33.87;9.80;;;7.00;99.90;;;;;;5091090;28;20207;-77
2022/03/15 07:08:51;;;;;;;12.93;9.40;;;7.00;99.90;;;;;;5089708;28;20186;-76
2022/03/15 07:11:17;;;;;;;17.97;7.30;;;7.20;99.90;;;;;;5090415;28;20196;-77
2022/03/15 07:13:43;;;;;;;10.30;6.83;;;7.30;99.90;;;;;;5090084;28;20247;-78
2022/03/15 07:16:08;;;;;;;13.70;7.57;;;7.20;99.90;;;;;;5090200;28;20188;-78
2022/03/15 07:18:34;;;;;;;11.60;5.90;;;7.40;99.90;;;;;;5090003;28;20410;-78
2022/03/15 07:21:00;;;;;;;12.80;6.17;;;7.50;99.90;;;;;;5088416;28;20184;-78
2022/03/15 07:23:26;;;;;;;9.50;5.77;;;7.60;99.90;;;;;;5088269;28;20288;-78
2022/03/15 07:25:51;;;;;;;20.40;10.23;;;7.90;99.90;;;;;;5090047;28;20179;-78
2022/03/15 07:28:17;;;;;;;32.63;11.77;;;7.90;99.90;;;;;;5088359;28;20429;-78
2022/03/15 07:30:42;;;;;;;24.13;11.73;;;7.90;99.90;;;;;;5089531;28;20598;-78
2022/03/15 07:33:08;;;;;;;35.23;12.60;;;7.90;99.90;;;;;;5089411;28;20216;-77
2022/03/15 07:35:34;;;;;;;33.47;13.37;;;7.90;99.90;;;;;;5089575;28;20179;-78
2022/03/15 07:38:00;;;;;;;30.10;13.60;;;7.90;99.90;;;;;;5089279;28;20251;-78
2022/03/15 07:40:27;;;;;;;35.53;12.83;;;8.00;99.90;;;;;;5088802;28;20182;-78
2022/03/15 07:42:53;;;;;;;23.37;9.23;;;8.00;99.90;;;;;;5087873;28;20687;-79
2022/03/15 07:45:19;;;;;;;16.80;8.30;;;8.00;99.90;;;;;;5089071;28;20417;-78
2022/03/15 07:47:47;;;;;;;11.83;6.93;;;8.00;99.90;;;;;;5089183;28;21003;-77
2022/03/15 07:50:13;;;;;;;15.07;6.53;;;8.00;99.90;;;;;;5089151;28;20417;-78
2022/03/15 07:52:39;;;;;;;15.57;6.57;;;8.10;99.90;;;;;;5088780;28;20471;-77
2022/03/15 07:55:05;;;;;;;10.47;6.60;;;8.10;99.90;;;;;;5087473;28;20635;-78
2022/03/15 07:57:31;;;;;;;12.90;6.87;;;8.20;99.90;;;;;;5088874;28;20289;-79
2022/03/15 07:59:56;;;;;;;13.03;6.43;;;8.20;99.90;;;;;;5087613;28;20512;-78
2022/03/15 08:02:22;;;;;;;12.77;6.27;;;8.20;99.90;;;;;;5089187;28;20567;-77
2022/03/15 08:04:48;;;;;;;9.60;5.93;;;8.30;99.90;;;;;;5087844;28;20175;-77
2022/03/15 08:07:13;;;;;;;9.50;4.80;;;8.20;99.90;;;;;;5090217;28;20272;-77
2022/03/15 08:09:39;;;;;;;9.97;5.47;;;8.20;99.90;;;;;;5087392;28;20194;-77
2022/03/15 08:12:06;;;;;;;6.60;4.63;;;8.30;99.90;;;;;;5088725;28;20460;-78
2022/03/15 08:14:31;;;;;;;10.03;5.17;;;8.40;99.90;;;;;;5088755;28;20296;-76
2022/03/15 08:16:57;;;;;;;12.73;6.13;;;8.40;99.90;;;;;;5088990;28;20498;-77
2022/03/15 08:19:23;;;;;;;15.70;5.93;;;8.30;99.90;;;;;;5087280;28;20266;-77
2022/03/15 08:21:49;;;;;;;10.83;5.50;;;8.40;99.90;;;;;;5087383;28;20423;-76
2022/03/15 08:24:16;;;;;;;12.80;5.70;;;8.40;99.90;;;;;;5070427;28;20655;-78
2022/03/15 08:26:42;;;;;;;12.37;5.73;;;8.50;99.90;;;;;;5071205;28;20175;-78
2022/03/15 08:29:08;;;;;;;5.60;5.07;;;8.40;99.90;;;;;;5087746;28;20416;-78
2022/03/15 08:31:34;;;;;;;10.47;5.97;;;8.50;99.90;;;;;;5070602;28;20206;-79
2022/03/15 08:33:59;;;;;;;12.70;6.33;;;8.40;99.90;;;;;;5088500;28;20207;-79
2022/03/15 08:36:25;;;;;;;8.50;6.40;;;8.40;99.90;;;;;;5087674;28;20420;-78
2022/03/15 08:38:51;;;;;;;16.83;7.30;;;8.40;99.90;;;;;;5088952;28;20259;-77
2022/03/15 08:41:16;;;;;;;10.43;5.30;;;8.50;99.90;;;;;;5088947;28;20200;-78
2022/03/15 08:43:42;;;;;;;13.87;6.50;;;8.50;99.90;;;;;;5087294;28;20707;-78
2022/03/15 08:46:08;;;;;;;11.00;5.80;;;8.60;99.90;;;;;;5087301;28;20778;-78
2022/03/15 08:48:34;;;;;;;8.53;5.73;;;8.60;99.90;;;;;;5087065;28;20182;-78
2022/03/15 08:51:00;;;;;;;10.50;5.80;;;8.60;99.90;;;;;;5086827;28;20493;-78
2022/03/15 08:53:27;;;;;;;9.30;6.40;;;8.60;99.90;;;;;;5090925;28;20629;-79
2022/03/15 08:55:53;;;;;;;11.70;6.00;;;8.80;99.90;;;;;;5090783;28;20515;-78
2022/03/15 08:58:19;;;;;;;14.83;7.00;;;8.80;99.90;;;;;;5090887;28;20526;-78
2022/03/15 09:00:44;;;;;;;15.13;7.60;;;8.80;99.90;;;;;;5090890;28;20199;-77
2022/03/15 09:03:10;;;;;;;20.57;8.63;;;8.80;99.90;;;;;;5092105;28;20262;-77
2022/03/15 09:05:37;;;;;;;20.00;9.90;;;8.90;99.90;;;;;;5090442;28;20182;-78
2022/03/15 09:08:02;;;;;;;14.77;9.23;;;9.00;99.90;;;;;;5073797;28;20485;-77
2022/03/15 09:10:28;;;;;;;13.47;7.20;;;9.10;99.90;;;;;;5073537;28;20945;-77
2022/03/15 09:12:54;;;;;;;10.07;6.70;;;9.20;99.90;;;;;;5090270;28;20218;-78
2022/03/15 09:15:22;;;;;;;11.60;6.33;;;9.30;99.90;;;;;;5091977;28;20629;-77
2022/03/15 09:17:48;;;;;;;15.63;8.40;;;9.30;99.90;;;;;;5091741;28;20205;-78
2022/03/15 09:20:14;;;;;;;17.57;8.67;;;9.20;99.90;;;;;;5091977;28;20972;-78
2022/03/15 09:22:40;;;;;;;10.33;7.63;;;9.20;99.90;;;;;;5091679;28;20229;-77
2022/03/15 09:25:06;;;;;;;14.40;7.23;;;9.20;99.90;;;;;;5091719;28;20451;-78
2022/03/15 09:27:32;;;;;;;17.97;6.60;;;9.20;99.90;;;;;;5089956;28;20543;-77
2022/03/15 09:29:58;;;;;;;14.77;8.17;;;9.20;99.90;;;;;;5095967;28;20466;-76
2022/03/15 09:32:25;;;;;;;18.80;7.00;;;9.00;99.90;;;;;;5093247;28;20287;-78
2022/03/15 09:34:50;;;;;;;15.30;6.63;;;9.20;99.90;;;;;;5091343;28;20411;-79
2022/03/15 09:37:16;;;;;;;13.50;7.03;;;9.30;99.90;;;;;;5091789;28;20448;-78
2022/03/15 09:39:43;;;;;;;18.63;8.27;;;9.20;99.90;;;;;;5090174;28;20428;-77
2022/03/15 09:42:09;;;;;;;12.33;7.83;;;9.20;99.90;;;;;;5091689;28;20450;-78
2022/03/15 09:44:40;;;;;;;16.83;8.03;;;9.40;99.90;;;;;;5090711;28;20424;-76
2022/03/15 09:47:07;;;;;;;16.50;8.00;;;9.40;99.90;;;;;;5090711;28;20490;-77
2022/03/15 09:49:35;;;;;;;14.17;7.47;;;9.40;99.90;;;;;;5089941;28;20766;-77
2022/03/15 09:52:01;;;;;;;14.37;9.10;;;9.40;99.90;;;;;;5091241;28;21075;-76
2022/03/15 09:54:29;;;;;;;19.17;7.93;;;9.40;99.90;;;;;;5091474;28;20412;-77
2022/03/15 09:56:56;;;;;;;18.30;6.97;;;9.30;99.90;;;;;;5091362;28;20428;-77
2022/03/15 09:59:23;;;;;;;11.90;7.30;;;9.40;99.90;;;;;;5072939;28;20902;-77
2022/03/15 10:01:51;;;;;;;12.70;7.73;;;9.40;99.90;;;;;;5089247;28;20428;-78
2022/03/15 10:04:22;;;;;;;9.80;6.80;;;9.40;99.90;;;;;;5088737;28;20945;-76
2022/03/15 10:06:48;;;;;;;8.90;7.30;;;9.50;99.90;;;;;;5089543;28;20405;-78
2022/03/15 10:09:15;;;;;;;13.47;6.90;;;9.50;99.90;;;;;;5091104;28;20424;-76
2022/03/15 10:11:41;;;;;;;24.63;7.27;;;9.50;99.90;;;;;;5089408;28;20912;-77
2022/03/15 10:14:08;;;;;;;10.60;6.93;;;9.50;99.90;;;;;;5090881;28;20443;-76
2022/03/15 10:16:40;;;;;;;17.47;6.50;;;9.50;99.90;;;;;;5090814;28;20409;-77
2022/03/15 10:19:07;;;;;;;12.70;6.77;;;9.60;99.90;;;;;;5089336;28;20417;-77
2022/03/15 10:21:53;;;;;;;12.27;7.60;;;9.50;99.90;;;;;;5089508;28;20489;-77
2022/03/15 10:24:25;;;;;;;8.77;6.40;;;9.60;99.90;;;;;;5090447;28;20427;-78
2022/03/15 10:26:53;;;;;;;17.43;7.63;;;9.50;99.90;;;;;;5089352;28;20424;-77
2022/03/15 10:29:20;;;;;;;11.10;7.53;;;9.50;99.90;;;;;;5090269;28;20509;-77
2022/03/15 10:31:47;;;;;;;13.13;8.10;;;9.60;99.90;;;;;;5090094;28;20461;-78
2022/03/15 10:34:15;;;;;;;7.23;3.40;;;9.60;99.90;;;;;;5088998;28;21058;-76
2022/03/15 10:36:44;;;;;;;6.47;2.50;;;9.80;99.90;;;;;;5090121;28;20408;-77
2022/03/15 10:39:11;;;;;;;1.97;1.87;;;10.00;99.90;;;;;;5089761;28;20552;-77
2022/03/15 10:41:48;;;;;;;2.07;1.00;;;10.30;99.90;;;;;;5088395;28;20427;-77
2022/03/15 10:44:39;;;;;;;1.37;1.10;;;10.60;99.90;;;;;;5088445;28;20448;-77
2022/03/15 10:47:04;;;;;;;2.70;1.13;;;10.70;99.90;;;;;;5089768;28;20419;-77
2022/03/15 10:49:52;;;;;;;1.10;1.00;;;10.80;99.90;;;;;;5089658;28;20963;-77
2022/03/15 10:52:48;;;;;;;1.87;1.00;;;10.90;99.90;;;;;;5084594;28;20231;-76
2022/03/15 10:55:28;;;;;;;3.53;1.13;;;11.00;99.90;;;;;;5084746;28;20431;-77
2022/03/15 10:57:58;;;;;;;0.90;0.77;;;11.00;99.90;;;;;;5088207;28;20437;-78
2022/03/15 11:00:30;;;;;;;4.30;0.87;;;11.00;99.90;;;;;;5089569;28;20402;-78
2022/03/15 11:02:57;;;;;;;1.63;0.87;;;11.10;99.90;;;;;;5089531;28;20465;-78
2022/03/15 11:05:38;;;;;;;1.77;0.80;;;11.00;99.90;;;;;;5071774;28;20435;-78
2022/03/15 11:08:13;;;;;;;1.00;0.70;;;11.10;99.90;;;;;;5088018;28;20423;-77
2022/03/15 11:10:40;;;;;;;1.40;0.80;;;11.10;99.90;;;;;;5089377;28;20995;-78
2022/03/15 11:13:11;;;;;;;0.80;0.60;;;11.10;99.90;;;;;;5087705;28;21087;-78
2022/03/15 11:15:48;;;;;;;2.20;0.60;;;11.10;99.90;;;;;;5087190;28;20936;-77
2022/03/15 11:18:16;;;;;;;1.10;0.90;;;11.10;99.90;;;;;;5089175;28;20438;-77
2022/03/15 11:20:45;;;;;;;1.57;0.80;;;11.10;99.90;;;;;;5087687;28;20415;-78
2022/03/15 11:23:13;;;;;;;1.67;1.00;;;11.10;99.90;;;;;;5088784;28;20514;-76
2022/03/15 11:25:45;;;;;;;1.00;0.80;;;11.10;99.90;;;;;;5095671;28;20405;-83
2022/03/15 11:28:31;;;;;;;2.27;1.27;;;11.10;99.90;;;;;;5092416;28;20391;-83
2022/03/15 11:30:57;;;;;;;1.20;0.80;;;11.10;99.90;;;;;;5092143;28;20402;-84
2022/03/15 11:33:25;;;;;;;1.00;0.60;;;10.90;99.90;;;;;;5076481;28;20437;-81
2022/03/15 11:35:50;;;;;;;1.30;0.73;;;10.90;99.90;;;;;;5093975;28;20514;-82
2022/03/15 11:38:18;;;;;;;1.53;0.80;;;10.80;99.90;;;;;;5093747;28;20431;-83
2022/03/15 11:40:44;;;;;;;1.13;0.70;;;10.70;99.90;;;;;;5075354;28;20182;-82
2022/03/15 11:43:34;;;;;;;0.70;0.67;;;10.60;99.90;;;;;;5058894;28;20444;-84
2022/03/15 11:46:06;;;;;;;4.77;0.60;;;10.60;99.90;;;;;;5093702;28;21012;-82
2022/03/15 11:48:48;;;;;;;1.43;0.93;;;10.60;99.90;;;;;;5089807;28;20453;-79
2022/03/15 11:51:40;;;;;;;0.93;0.83;;;10.60;99.90;;;;;;5088474;28;20482;-78
2022/03/15 11:54:21;;;;;;;0.80;0.70;;;10.70;99.90;;;;;;5088430;28;21094;-78
2022/03/15 11:57:01;;;;;;;4.77;1.03;;;10.70;99.90;;;;;;5088119;28;20487;-78
2022/03/15 11:59:54;;;;;;;3.37;1.23;;;10.70;99.90;;;;;;5088073;28;20405;-78
2022/03/15 12:02:34;;;;;;;1.90;1.20;;;10.70;99.90;;;;;;5088154;28;20424;-77
2022/03/15 12:05:20;;;;;;;1.43;0.87;;;10.80;99.90;;;;;;5086607;28;20535;-78
2022/03/15 12:08:12;;;;;;;2.10;0.73;;;10.70;99.90;;;;;;5088383;28;20420;-77
2022/03/15 12:10:42;;;;;;;1.30;1.07;;;10.60;99.90;;;;;;5087552;28;20462;-78
2022/03/15 12:13:09;;;;;;;1.37;0.70;;;10.50;99.90;;;;;;5088671;28;20820;-79
2022/03/15 12:15:41;;;;;;;3.00;1.83;;;10.40;99.90;;;;;;5087676;28;20445;-79
2022/03/15 12:21:07;;;;;;;1.57;1.27;;;10.10;99.90;;;;;;5087974;28;20391;-76
2022/03/15 12:23:45;;;;;;;1.47;1.30;;;10.10;99.90;;;;;;5086437;28;20428;-77
2022/03/15 12:26:27;;;;;;;3.93;1.40;;;10.10;99.90;;;;;;5087037;28;20447;-78
2022/03/15 12:29:04;;;;;;;1.50;1.40;;;10.00;99.90;;;;;;5088445;28;20463;-80
2022/03/15 12:31:48;;;;;;;2.30;1.37;;;10.10;99.90;;;;;;5087148;28;20478;-78
2022/03/15 12:34:15;;;;;;;1.47;1.37;;;10.00;99.90;;;;;;5087055;28;20458;-79
2022/03/15 12:36:53;;;;;;;1.90;1.70;;;10.00;99.90;;;;;;5088274;28;20425;-78
2022/03/15 12:39:24;;;;;;;3.10;1.50;;;10.10;99.90;;;;;;5086752;28;20428;-78
2022/03/15 12:42:09;;;;;;;1.60;1.50;;;10.10;99.90;;;;;;5086743;28;20429;-77
2022/03/15 12:45:14;;;;;;;2.03;1.73;;;10.20;99.90;;;;;;5086813;28;20420;-77
2022/03/15 12:47:43;;;;;;;2.17;1.50;;;10.20;99.90;;;;;;5088795;28;20415;-78
2022/03/15 12:50:12;;;;;;;2.03;1.60;;;10.20;99.90;;;;;;5087303;28;20432;-79
2022/03/15 12:52:45;;;;;;;1.63;1.50;;;10.20;99.90;;;;;;5088671;28;20473;-76
2022/03/15 12:55:18;;;;;;;1.67;1.50;;;10.30;99.90;;;;;;5086635;28;20507;-79
2022/03/15 12:57:45;;;;;;;2.57;1.50;;;10.30;99.90;;;;;;5088126;28;20474;-77